createdAt,value
2019-03-06T00:02:13.391Z,3.13
2019-03-06T00:04:44.221Z,3.15
2019-03-06T00:07:14.677Z,3.16
2019-03-06T00:09:46.712Z,3.16
2019-03-06T00:12:17.166Z,3.17
2019-03-06T00:14:47.630Z,3.20
2019-03-06T00:17:18.276Z,3.22
2019-03-06T00:19:49.602Z,3.21
2019-03-06T00:22:20.059Z,3.24
2019-03-06T00:24:50.773Z,3.24
2019-03-06T00:27:21.246Z,3.25
2019-03-06T00:29:52.742Z,3.25
2019-03-06T00:32:23.130Z,3.26
2019-03-06T00:34:55.018Z,3.25
2019-03-06T00:37:25.598Z,3.26
2019-03-06T00:40:02.104Z,3.24
2019-03-06T00:42:34.637Z,3.35
2019-03-06T00:45:07.104Z,3.34
2019-03-06T00:47:37.615Z,3.31
2019-03-06T00:50:08.344Z,3.27
2019-03-06T00:52:38.855Z,3.31
2019-03-06T00:55:09.267Z,3.31
2019-03-06T00:57:39.795Z,3.31
2019-03-06T01:00:11.041Z,3.29
2019-03-06T01:02:41.670Z,3.30
2019-03-06T01:05:12.258Z,3.31
2019-03-06T01:07:44.428Z,3.31
2019-03-06T01:10:15.662Z,3.30
2019-03-06T01:12:46.611Z,3.35
2019-03-06T01:15:17.517Z,3.32
2019-03-06T01:17:49.757Z,3.31
2019-03-06T01:20:20.563Z,3.31
2019-03-06T01:22:51.660Z,3.32
2019-03-06T01:25:22.328Z,3.31
2019-03-06T01:27:53.265Z,3.37
2019-03-06T01:30:23.891Z,3.35
2019-03-06T01:32:59.432Z,3.35
2019-03-06T01:35:43.656Z,3.37
2019-03-06T01:38:31.866Z,3.34
2019-03-06T01:41:20.799Z,3.34
2019-03-06T01:43:58.690Z,3.35
2019-03-06T01:46:30.848Z,3.37
2019-03-06T01:49:01.387Z,3.38
2019-03-06T01:51:31.873Z,3.41
2019-03-06T01:54:02.482Z,3.42
2019-03-06T01:56:33.195Z,3.43
2019-03-06T01:59:03.904Z,3.45
2019-03-06T02:01:34.716Z,3.45
2019-03-06T02:04:06.278Z,3.45
2019-03-06T02:06:36.868Z,3.44
2019-03-06T02:09:10.113Z,3.43
2019-03-06T02:11:41.037Z,3.44
2019-03-06T02:14:13.411Z,3.38
2019-03-06T02:16:44.014Z,3.35
2019-03-06T02:19:14.500Z,3.33
2019-03-06T02:21:45.333Z,3.30
2019-03-06T02:24:16.146Z,3.26
2019-03-06T02:26:46.734Z,3.28
2019-03-06T02:29:17.285Z,3.26
2019-03-06T02:31:47.719Z,3.25
2019-03-06T02:34:18.325Z,3.24
2019-03-06T02:36:49.239Z,3.30
2019-03-06T02:39:19.722Z,3.36
2019-03-06T02:41:50.335Z,3.33
2019-03-06T02:44:20.732Z,3.35
2019-03-06T02:46:51.211Z,3.34
2019-03-06T02:49:21.721Z,3.32
2019-03-06T02:51:52.360Z,3.29
2019-03-06T02:54:23.184Z,3.28
2019-03-06T02:56:54.160Z,3.30
2019-03-06T02:59:37.411Z,3.32
2019-03-06T03:02:33.064Z,3.30
2019-03-06T03:05:21.967Z,3.32
2019-03-06T03:07:52.666Z,3.34
2019-03-06T03:10:23.265Z,3.34
2019-03-06T03:12:53.736Z,3.32
2019-03-06T03:15:24.491Z,3.34
2019-03-06T03:17:54.934Z,3.36
2019-03-06T03:20:25.522Z,3.35
2019-03-06T03:22:56.035Z,3.34
2019-03-06T03:25:26.560Z,3.36
2019-03-06T03:27:57.292Z,3.35
2019-03-06T03:30:28.472Z,3.37
2019-03-06T03:32:59.673Z,3.39
2019-03-06T03:35:30.723Z,3.47
2019-03-06T03:38:02.230Z,3.45
2019-03-06T03:40:32.711Z,3.41
2019-03-06T03:43:03.495Z,3.42
2019-03-06T03:45:34.159Z,3.42
2019-03-06T03:48:04.637Z,3.41
2019-03-06T03:50:36.323Z,3.42
2019-03-06T03:53:07.021Z,3.42
2019-03-06T03:55:37.637Z,3.47
2019-03-06T03:58:08.079Z,3.48
2019-03-06T04:00:40.410Z,3.49
2019-03-06T04:03:10.812Z,3.49
2019-03-06T04:05:41.631Z,3.50
2019-03-06T04:08:12.014Z,3.50
2019-03-06T04:10:43.446Z,3.40
2019-03-06T04:13:14.025Z,3.35
2019-03-06T04:15:44.771Z,3.34
2019-03-06T04:18:15.248Z,3.34
2019-03-06T04:20:45.682Z,3.33
2019-03-06T04:23:16.679Z,3.33
2019-03-06T04:25:47.300Z,3.29
2019-03-06T04:28:17.868Z,3.26
2019-03-06T04:30:52.276Z,3.23
2019-03-06T04:33:22.788Z,3.18
2019-03-06T04:35:55.014Z,3.13
2019-03-06T04:38:25.569Z,3.12
2019-03-06T04:40:57.167Z,3.12
2019-03-06T04:43:27.486Z,3.11
2019-03-06T04:45:58.576Z,3.10
2019-03-06T04:48:29.017Z,3.06
2019-03-06T04:50:59.446Z,3.05
2019-03-06T04:53:30.593Z,3.06
2019-03-06T04:56:02.091Z,3.07
2019-03-06T04:58:32.591Z,3.05
2019-03-06T05:01:03.987Z,3.05
2019-03-06T05:03:34.617Z,3.03
2019-03-06T05:06:06.090Z,3.03
2019-03-06T05:08:36.679Z,2.97
2019-03-06T05:11:07.199Z,2.97
2019-03-06T05:13:37.640Z,2.86
2019-03-06T05:16:08.000Z,2.65
2019-03-06T05:19:00.861Z,2.65
2019-03-06T05:21:31.751Z,2.72
2019-03-06T05:24:02.492Z,2.67
2019-03-06T05:26:32.942Z,2.60
2019-03-06T05:29:03.775Z,2.54
2019-03-06T05:31:34.258Z,2.53
2019-03-06T05:34:04.779Z,2.49
2019-03-06T05:37:00.119Z,2.40
2019-03-06T05:39:30.494Z,2.38
2019-03-06T05:42:00.977Z,2.31
2019-03-06T05:44:31.435Z,2.29
2019-03-06T05:47:02.980Z,2.26
2019-03-06T05:49:33.400Z,2.29
2019-03-06T05:52:04.412Z,2.27
2019-03-06T05:54:35.552Z,2.45
2019-03-06T05:57:08.004Z,2.34
2019-03-06T05:59:38.465Z,2.25
2019-03-06T06:02:08.823Z,2.26
2019-03-06T06:04:39.467Z,2.26
2019-03-06T06:07:10.918Z,2.24
2019-03-06T06:09:41.435Z,2.25
2019-03-06T06:12:11.855Z,2.24
2019-03-06T06:14:42.604Z,2.26
2019-03-06T06:17:13.216Z,2.28
2019-03-06T06:19:44.115Z,2.32
2019-03-06T06:22:24.469Z,2.34
2019-03-06T06:24:54.839Z,2.37
2019-03-06T06:27:25.453Z,2.39
2019-03-06T06:29:57.893Z,2.47
2019-03-06T06:32:28.801Z,2.52
2019-03-06T06:34:59.196Z,2.56
2019-03-06T06:37:29.628Z,2.60
2019-03-06T06:40:00.320Z,2.59
2019-03-06T06:42:30.775Z,2.69
2019-03-06T06:45:01.932Z,2.76
2019-03-06T06:47:32.832Z,2.79
2019-03-06T06:50:03.561Z,2.83
2019-03-06T06:53:25.180Z,2.88
2019-03-06T06:56:37.439Z,2.94
2019-03-06T06:59:18.691Z,3.03
2019-03-06T07:02:26.818Z,3.12
2019-03-06T07:05:31.107Z,3.21
2019-03-06T07:08:20.455Z,3.27
2019-03-06T07:11:22.148Z,3.37
2019-03-06T07:14:26.787Z,3.49
2019-03-06T07:17:16.228Z,3.59
2019-03-06T07:20:05.560Z,3.66
2019-03-06T07:22:54.999Z,3.77
2019-03-06T07:25:32.039Z,3.91
2019-03-06T07:28:39.438Z,4.03
2019-03-06T07:31:16.542Z,4.14
2019-03-06T07:34:02.731Z,4.21
2019-03-06T07:37:10.788Z,4.26
2019-03-06T07:39:49.405Z,4.35
2019-03-06T07:42:46.554Z,4.50
2019-03-06T07:45:52.791Z,4.52
2019-03-06T07:48:36.264Z,4.67
2019-03-06T07:51:24.423Z,4.79
2019-03-06T07:54:15.039Z,4.83
2019-03-06T07:57:08.184Z,4.90
2019-03-06T07:59:38.651Z,4.84
2019-03-06T08:02:12.027Z,4.93
2019-03-06T08:04:51.821Z,4.99
2019-03-06T08:07:22.533Z,4.97
2019-03-06T08:09:53.271Z,5.13
2019-03-06T08:12:51.750Z,5.19
2019-03-06T08:15:44.672Z,5.13
2019-03-06T08:18:40.206Z,5.15
2019-03-06T08:21:28.485Z,5.15
2019-03-06T08:24:36.258Z,5.19
2019-03-06T08:27:06.646Z,5.29
2019-03-06T08:29:38.022Z,5.43
2019-03-06T08:32:26.622Z,5.43
2019-03-06T08:34:57.304Z,5.53
2019-03-06T08:37:27.952Z,5.70
2019-03-06T08:39:58.396Z,5.78
2019-03-06T08:42:29.075Z,5.87
2019-03-06T08:44:59.990Z,5.90
2019-03-06T08:47:38.295Z,5.83
2019-03-06T08:50:15.196Z,5.93
2019-03-06T08:52:51.543Z,5.94
2019-03-06T08:55:35.194Z,5.94
2019-03-06T08:58:34.444Z,6.12
2019-03-06T09:01:49.069Z,6.15
2019-03-06T09:04:36.286Z,6.02
2019-03-06T09:07:16.968Z,6.21
2019-03-06T09:10:15.575Z,6.23
2019-03-06T09:13:00.218Z,6.18
2019-03-06T09:15:50.864Z,6.16
2019-03-06T09:18:49.698Z,6.14
2019-03-06T09:21:40.637Z,6.17
2019-03-06T09:24:36.822Z,6.29
2019-03-06T09:27:25.071Z,6.26
2019-03-06T09:30:16.694Z,6.30
2019-03-06T09:33:21.348Z,6.41
2019-03-06T09:36:09.574Z,6.43
2019-03-06T09:38:56.221Z,6.38
2019-03-06T09:41:39.701Z,6.54
2019-03-06T09:44:35.213Z,6.63
2019-03-06T09:47:26.180Z,6.49
2019-03-06T09:50:24.785Z,6.63
2019-03-06T09:53:13.200Z,6.75
2019-03-06T09:56:08.788Z,6.95
2019-03-06T09:59:04.594Z,7.08
2019-03-06T10:02:09.744Z,7.15
2019-03-06T10:05:02.427Z,7.30
2019-03-06T10:08:10.063Z,7.42
2019-03-06T10:11:11.944Z,7.14
2019-03-06T10:13:47.668Z,7.11
2019-03-06T10:16:36.793Z,7.15
2019-03-06T10:19:24.752Z,7.39
2019-03-06T10:21:59.150Z,7.62
2019-03-06T10:24:30.085Z,7.85
2019-03-06T10:27:00.583Z,8.07
2019-03-06T10:29:32.518Z,8.04
2019-03-06T10:32:03.042Z,7.85
2019-03-06T10:34:33.757Z,7.85
2019-03-06T10:39:36.455Z,7.82
2019-03-06T10:42:06.860Z,7.77
2019-03-06T10:44:38.381Z,7.96
2019-03-06T10:47:08.793Z,8.10
2019-03-06T10:49:39.585Z,8.00
2019-03-06T10:52:10.403Z,7.86
2019-03-06T10:54:44.921Z,7.88
2019-03-06T10:57:14.833Z,7.88
2019-03-06T10:59:45.629Z,8.20
2019-03-06T11:02:16.355Z,8.34
2019-03-06T11:04:54.644Z,8.20
2019-03-06T11:07:24.999Z,8.05
2019-03-06T11:09:55.458Z,7.84
2019-03-06T11:12:26.762Z,8.07
2019-03-06T11:14:57.352Z,8.20
2019-03-06T11:17:28.094Z,8.21
2019-03-06T11:19:58.838Z,8.34
2019-03-06T11:22:29.218Z,8.36
2019-03-06T11:25:00.019Z,8.53
2019-03-06T11:27:32.319Z,8.50
2019-03-06T11:30:02.898Z,8.40
2019-03-06T11:32:33.772Z,8.45
2019-03-06T11:35:05.281Z,8.35
2019-03-06T11:37:36.152Z,8.20
2019-03-06T11:40:07.148Z,8.09
2019-03-06T11:42:38.001Z,8.40
2019-03-06T11:45:11.591Z,8.30
2019-03-06T11:47:42.410Z,8.36
2019-03-06T11:50:13.078Z,8.70
2019-03-06T11:52:43.794Z,8.89
2019-03-06T11:55:16.550Z,9.09
2019-03-06T11:57:47.655Z,9.07
2019-03-06T12:00:30.489Z,8.76
2019-03-06T12:03:01.153Z,8.82
2019-03-06T12:05:32.083Z,9.33
2019-03-06T12:08:03.986Z,9.71
2019-03-06T12:10:34.913Z,9.85
2019-03-06T12:13:09.816Z,10.14
2019-03-06T12:15:41.367Z,10.53
2019-03-06T12:18:12.259Z,9.99
2019-03-06T12:20:42.823Z,10.77
2019-03-06T12:23:13.292Z,11.08
2019-03-06T12:25:44.321Z,12.14
2019-03-06T12:28:15.800Z,12.87
2019-03-06T12:30:46.502Z,14.47
2019-03-06T12:33:22.022Z,14.04
2019-03-06T12:35:53.029Z,14.09
2019-03-06T12:38:23.602Z,15.29
2019-03-06T12:40:53.980Z,16.68
2019-03-06T12:43:25.348Z,17.36
2019-03-06T12:46:23.443Z,17.19
2019-03-06T12:48:52.921Z,16.37
2019-03-06T12:51:24.826Z,16.82
2019-03-06T12:53:55.168Z,17.83
2019-03-06T12:56:25.866Z,16.95
2019-03-06T12:58:56.622Z,16.37
2019-03-06T13:01:27.095Z,15.47
2019-03-06T13:03:57.830Z,15.62
2019-03-06T13:06:28.303Z,15.26
2019-03-06T13:08:59.446Z,15.52
2019-03-06T13:11:29.864Z,15.62
2019-03-06T13:14:02.541Z,15.54
2019-03-06T13:16:32.989Z,15.56
2019-03-06T13:19:04.022Z,15.56
2019-03-06T13:21:34.619Z,15.16
2019-03-06T13:24:06.416Z,15.15
2019-03-06T13:26:37.095Z,15.55
2019-03-06T13:29:08.539Z,15.38
2019-03-06T13:31:39.579Z,15.17
2019-03-06T13:34:15.221Z,15.04
2019-03-06T13:36:45.947Z,14.75
2019-03-06T13:39:17.219Z,14.34
2019-03-06T13:41:47.798Z,14.19
2019-03-06T13:44:19.100Z,14.54
2019-03-06T13:46:49.519Z,14.61
2019-03-06T13:49:20.057Z,14.93
2019-03-06T13:51:50.494Z,14.65
2019-03-06T13:54:20.935Z,13.86
2019-03-06T13:56:52.006Z,14.19
2019-03-06T13:59:22.824Z,14.46
2019-03-06T14:01:53.833Z,14.44
2019-03-06T14:04:25.208Z,14.41
2019-03-06T14:06:56.100Z,15.01
2019-03-06T14:09:27.200Z,15.25
2019-03-06T14:11:58.012Z,15.29
2019-03-06T14:14:31.112Z,15.25
2019-03-06T14:17:01.861Z,15.19
2019-03-06T14:19:32.475Z,14.93
2019-03-06T14:22:03.409Z,14.99
2019-03-06T14:24:34.205Z,15.01
2019-03-06T14:27:05.311Z,14.72
2019-03-06T14:29:35.808Z,15.06
2019-03-06T14:32:14.354Z,14.99
2019-03-06T14:34:39.185Z,14.87
2019-03-06T14:37:09.698Z,15.41
2019-03-06T14:39:41.288Z,15.76
2019-03-06T14:42:11.775Z,15.16
2019-03-06T14:44:42.277Z,15.11
2019-03-06T14:47:15.222Z,14.48
2019-03-06T14:49:46.237Z,14.88
2019-03-06T14:52:16.788Z,15.24
2019-03-06T14:54:47.422Z,14.95
2019-03-06T14:57:18.053Z,14.97
2019-03-06T14:59:48.487Z,15.33
2019-03-06T15:02:19.052Z,14.64
2019-03-06T15:04:49.593Z,14.74
2019-03-06T15:07:20.059Z,15.09
2019-03-06T15:09:50.711Z,15.07
2019-03-06T15:12:21.122Z,15.17
2019-03-06T15:14:51.766Z,15.04
2019-03-06T15:17:22.354Z,15.18
2019-03-06T15:19:53.297Z,14.71
2019-03-06T15:22:24.253Z,14.42
2019-03-06T15:24:54.626Z,14.68
2019-03-06T15:27:25.131Z,14.33
2019-03-06T15:29:55.709Z,14.55
2019-03-06T15:32:26.130Z,14.16
2019-03-06T15:34:56.977Z,14.23
2019-03-06T15:37:27.543Z,14.43
2019-03-06T15:39:58.037Z,14.53
2019-03-06T15:42:28.554Z,14.20
2019-03-06T15:44:58.957Z,14.26
2019-03-06T15:47:33.577Z,13.93
2019-03-06T15:50:01.580Z,13.85
2019-03-06T15:52:32.446Z,14.27
2019-03-06T15:55:02.830Z,13.87
2019-03-06T15:57:33.258Z,13.80
2019-03-06T16:00:03.640Z,13.88
2019-03-06T16:02:34.125Z,13.74
2019-03-06T16:05:05.509Z,13.41
2019-03-06T16:07:36.137Z,13.33
2019-03-06T16:10:06.856Z,12.94
2019-03-06T16:12:38.312Z,12.85
2019-03-06T16:15:08.974Z,12.94
2019-03-06T16:17:39.787Z,12.74
2019-03-06T16:20:14.817Z,12.43
2019-03-06T16:22:46.160Z,12.38
2019-03-06T16:25:16.532Z,12.19
2019-03-06T16:27:47.047Z,12.09
2019-03-06T16:30:18.511Z,11.93
2019-03-06T16:32:49.627Z,11.89
2019-03-06T16:35:20.264Z,11.70
2019-03-06T16:37:50.992Z,11.53
2019-03-06T16:40:21.670Z,11.44
2019-03-06T16:42:52.583Z,11.06
2019-03-06T16:45:24.854Z,10.96
2019-03-06T16:47:55.440Z,10.77
2019-03-06T16:50:26.611Z,10.66
2019-03-06T16:52:57.141Z,10.46
2019-03-06T16:55:27.966Z,10.34
2019-03-06T16:57:58.976Z,10.11
2019-03-06T17:00:31.434Z,10.01
2019-03-06T17:03:02.576Z,9.87
2019-03-06T17:05:33.931Z,9.61
2019-03-06T17:08:05.291Z,9.59
2019-03-06T17:10:36.812Z,9.50
2019-03-06T17:13:07.723Z,9.34
2019-03-06T17:15:38.443Z,9.28
2019-03-06T17:18:09.155Z,9.26
2019-03-06T17:20:39.638Z,9.21
2019-03-06T17:23:10.390Z,9.16
2019-03-06T17:25:41.215Z,9.08
2019-03-06T17:28:11.684Z,9.10
2019-03-06T17:30:42.500Z,8.99
2019-03-06T17:33:12.899Z,8.92
2019-03-06T17:35:44.065Z,8.87
2019-03-06T17:38:15.031Z,8.84
2019-03-06T17:40:45.728Z,8.73
2019-03-06T17:43:16.533Z,8.70
2019-03-06T17:45:47.939Z,8.57
2019-03-06T17:48:19.953Z,8.57
2019-03-06T17:50:50.546Z,8.49
2019-03-06T17:53:21.349Z,8.48
2019-03-06T17:55:54.508Z,8.43
2019-03-06T17:58:25.144Z,8.40
2019-03-06T18:01:03.075Z,8.35
2019-03-06T18:03:45.055Z,8.29
2019-03-06T18:06:16.949Z,8.23
2019-03-06T18:08:47.421Z,8.12
2019-03-06T18:11:18.056Z,8.04
2019-03-06T18:13:48.548Z,8.02
2019-03-06T18:16:19.212Z,7.87
2019-03-06T18:18:51.182Z,7.85
2019-03-06T18:21:21.684Z,7.77
2019-03-06T18:23:52.241Z,7.77
2019-03-06T18:26:22.678Z,7.75
2019-03-06T18:28:54.688Z,7.74
2019-03-06T18:31:25.262Z,7.76
2019-03-06T18:33:56.057Z,7.69
2019-03-06T18:36:26.974Z,7.65
2019-03-06T18:38:57.557Z,7.59
2019-03-06T18:41:29.657Z,7.49
2019-03-06T18:44:01.023Z,7.42
2019-03-06T18:46:31.775Z,7.35
2019-03-06T18:49:02.740Z,7.29
2019-03-06T18:51:34.178Z,7.20
2019-03-06T18:54:04.706Z,7.14
2019-03-06T18:56:35.102Z,7.06
2019-03-06T18:59:07.914Z,7.02
2019-03-06T19:01:38.433Z,6.93
2019-03-06T19:04:09.048Z,6.85
2019-03-06T19:06:41.348Z,6.80
2019-03-06T19:09:12.693Z,6.74
2019-03-06T19:11:43.548Z,6.64
2019-03-06T19:14:14.120Z,6.56
2019-03-06T19:16:44.625Z,6.46
2019-03-06T19:19:14.978Z,6.41
2019-03-06T19:21:45.455Z,6.35
2019-03-06T19:24:15.947Z,6.32
2019-03-06T19:26:47.414Z,6.27
2019-03-06T19:29:18.341Z,6.19
2019-03-06T19:31:49.061Z,6.16
2019-03-06T19:34:19.612Z,6.12
2019-03-06T19:36:50.311Z,6.06
2019-03-06T19:39:22.412Z,5.99
2019-03-06T19:41:53.055Z,5.95
2019-03-06T19:44:23.694Z,5.91
2019-03-06T19:46:56.601Z,5.86
2019-03-06T19:49:27.114Z,5.82
2019-03-06T19:51:58.172Z,5.75
2019-03-06T19:54:28.694Z,5.73
2019-03-06T19:56:59.304Z,5.74
2019-03-06T19:59:29.830Z,5.75
2019-03-06T20:02:00.594Z,5.75
2019-03-06T20:04:31.392Z,5.69
2019-03-06T20:07:02.399Z,5.68
2019-03-06T20:09:32.941Z,5.65
2019-03-06T20:12:03.343Z,5.60
2019-03-06T20:14:34.063Z,5.57
2019-03-06T20:17:04.460Z,5.56
2019-03-06T20:19:35.299Z,5.54
2019-03-06T20:22:05.833Z,5.53
2019-03-06T20:24:36.367Z,5.54
2019-03-06T20:27:06.952Z,5.54
2019-03-06T20:29:37.671Z,5.55
2019-03-06T20:32:08.247Z,5.56
2019-03-06T20:34:38.704Z,5.53
2019-03-06T20:37:09.357Z,5.49
2019-03-06T20:39:39.888Z,5.50
2019-03-06T20:42:10.261Z,5.46
2019-03-06T20:44:40.763Z,5.46
2019-03-06T20:47:11.416Z,5.42
2019-03-06T20:49:41.822Z,5.40
2019-03-06T20:52:12.310Z,5.43
2019-03-06T20:54:42.755Z,5.41
2019-03-06T20:57:13.487Z,5.36
2019-03-06T20:59:44.498Z,5.31
2019-03-06T21:02:15.303Z,5.26
2019-03-06T21:04:45.723Z,5.26
2019-03-06T21:07:16.337Z,5.27
2019-03-06T21:09:47.011Z,5.21
2019-03-06T21:12:17.416Z,5.19
2019-03-06T21:14:47.807Z,5.16
2019-03-06T21:17:18.294Z,5.16
2019-03-06T21:19:49.146Z,5.13
2019-03-06T21:22:19.773Z,5.13
2019-03-06T21:24:50.539Z,5.10
2019-03-06T21:27:21.511Z,5.11
2019-03-06T21:29:52.271Z,5.12
2019-03-06T21:32:23.791Z,5.10
2019-03-06T21:34:54.325Z,5.12
2019-03-06T21:37:25.103Z,5.12
2019-03-06T21:39:56.583Z,5.10
2019-03-06T21:42:27.082Z,5.06
2019-03-06T21:44:57.764Z,5.03
2019-03-06T21:47:28.397Z,5.02
2019-03-06T21:49:58.992Z,5.01
2019-03-06T21:52:29.499Z,5.03
2019-03-06T21:55:00.031Z,5.04
2019-03-06T21:57:30.562Z,5.03
2019-03-06T22:00:01.879Z,5.03
2019-03-06T22:02:34.219Z,5.02
2019-03-06T22:05:04.749Z,5.02
2019-03-06T22:07:35.242Z,5.03
2019-03-06T22:10:06.457Z,5.01
2019-03-06T22:12:36.974Z,4.97
2019-03-06T22:15:08.974Z,4.91
2019-03-06T22:17:39.434Z,4.92
2019-03-06T22:20:11.188Z,4.94
2019-03-06T22:22:41.630Z,4.91
2019-03-06T22:25:13.019Z,4.90
2019-03-06T22:27:43.744Z,4.89
2019-03-06T22:30:16.535Z,4.86
2019-03-06T22:32:46.925Z,4.85
2019-03-06T22:35:17.429Z,4.81
2019-03-06T22:37:48.052Z,4.81
2019-03-06T22:40:21.179Z,4.81
2019-03-06T22:42:51.576Z,4.82
2019-03-06T22:45:22.194Z,4.78
2019-03-06T22:47:52.874Z,4.77
2019-03-06T22:50:23.565Z,4.72
2019-03-06T22:52:54.746Z,4.74
2019-03-06T22:55:25.578Z,4.74
2019-03-06T22:57:58.057Z,4.72
2019-03-06T23:00:52.072Z,4.70
2019-03-06T23:03:25.089Z,4.71
2019-03-06T23:05:55.718Z,4.70
2019-03-06T23:08:26.419Z,4.69
2019-03-06T23:10:57.384Z,4.73
2019-03-06T23:13:27.998Z,4.66
2019-03-06T23:15:58.934Z,4.66
2019-03-06T23:18:29.562Z,4.65
2019-03-06T23:21:00.288Z,4.63
2019-03-06T23:23:30.925Z,4.64
2019-03-06T23:26:01.660Z,4.60
2019-03-06T23:28:32.423Z,4.60
2019-03-06T23:31:03.136Z,4.58
2019-03-06T23:33:34.412Z,4.56
2019-03-06T23:36:06.187Z,4.53
2019-03-06T23:38:36.839Z,4.52
2019-03-06T23:41:07.577Z,4.47
2019-03-06T23:43:38.380Z,4.44
2019-03-06T23:46:08.820Z,4.38
2019-03-06T23:48:39.467Z,4.34
2019-03-06T23:51:16.236Z,4.35
2019-03-06T23:53:56.462Z,4.36
2019-03-06T23:56:26.977Z,4.39
2019-03-06T23:58:57.353Z,4.40
